KSYF

Cheyenne County Municipal Airport

St Francis, Kansas, USA
METAR KSYF 191455Z AUTO 22007KT 10SM CLR 03/M09 A2976 RMK AO2 T00301091
Observed Flight Rules
Jan-19 @ 14:55 UTC (30 minutes ago) Visual Flight Rules
Wind Visibility Clouds
220° at 7 knots 10 miles
  • Clear skies
Temperatures Readings
Current 3°C / 37°F
Dewpoint -9°C / 16°F
Humidity 41%
Altimeter 29.76" Hg
Pressure 1008 hPa
Elevation 1025
METAR KSYF 191455Z AUTO 22007KT 10SM CLR 03/M09 A2976 RMK AO2 T00301091
Observed Flight Rules
Jan-19 @ 14:55 UTC
(30 minutes ago)
VFR
Wind Visibility
220° at 7 knots 10 miles
Clouds
  • Clear skies
Temperature Dewpoint
3°C / 37°F -9°C / 16°F
Humidity Altimeter Pressure
41% 29.76" Hg 1008 hPa